Seward, NE (68434)

5:39 PM CDT on August 30, 2015 (GMT -0500)
Suhr Lichty Insurance Downtown | | Change Station
CLOSE
Current Station
Personal Weather Station
Location: Seward, NE
Elevation: 1493 ft
Nearby Weather Stations

Elev 1493 ft 40.91 °N, 97.10 °W | Updated 8 minutes ago

Clear
Clear
77.2 °F
Feels Like 79 °F
N
4.0
Wind Variable Wind from SE
Gusts 11.0 mph

Today
High -- | Low -- °F
--% Chance of Precip.
Yesterday
High -- | Low -- °F
Precip. -- in
6:53 AM 8:04 PM
Full, 98% visible
Pressure 29.96 in
Visibility 10.0 miles
Clouds Clear
Heat Index 79 °F
Dew Point 68 °F
Humidity 73%
Rainfall 0.00 in
Snow Depth Not available.
UV 4 out of 12
Pollen 10.40 out of 12
Air Quality Not available.
Flu Activity Not available.
METAR KLNK 302154Z 18009KT 10SM CLR 26/19 A2999 RMK AO2 SLP145 T02560189
Pressure 29.96 in
Visibility 10.0 miles
Clouds Clear
Heat Index 79 °F
Dew Point 68 °F
Humidity 73%
Rainfall 0.00 in
Snow Depth Not available.
UV 4 out of 12
Pollen 10.40 out of 12
Air Quality Not available.
Flu Activity Not available.
METAR KLNK 302154Z 18009KT 10SM CLR 26/19 A2999 RMK AO2 SLP145 T02560189

10-Day Weather Forecast

×

Almanac

Astronomy

Aug. 30, 2015 Rise Set
Actual Time
Civil Twilight
Nautical Twilight
Astronomical Twilight
Moon
Length of Visible Light
Length of Day
Tomorrow will be .
, % of the Moon is Illuminated

Today's Extremes

State Highs State Lows

Community

WunderPhotos

Upload Photos

1,851,074 photos uploaded!

WunderBlogs® & News

Nearby

Air Quality

  Air Quality AQ Index Pollutant
Not available.

Snow Depth

Station Depth Elevation

Earthquake Activity

City Distance Mag. Time & Date
Minimum magnitude displayed is 2.5.

Coastal Water Temperatures

Place Temperature

Stations

Nearby Weather Stations

Station Location Temp. Windchill Dew Point Humidity Wind Precip. Elev Updated Type